createdAt,value
2023-01-25T00:01:24.256Z,8.13
2023-01-25T00:03:51.377Z,6.55
2023-01-25T00:06:25.069Z,5.80
2023-01-25T00:08:52.601Z,6.75
2023-01-25T00:11:27.081Z,7.60
2023-01-25T00:13:54.582Z,6.25
2023-01-25T00:19:01.240Z,7.38
2023-01-25T00:21:28.691Z,6.43
2023-01-25T00:26:30.062Z,5.88
2023-01-25T00:28:57.210Z,6.10
2023-01-25T00:31:46.193Z,5.82
2023-01-25T00:34:25.547Z,6.05
2023-01-25T00:36:59.212Z,5.53
2023-01-25T00:39:26.810Z,8.13
2023-01-25T00:41:53.953Z,7.82
2023-01-25T00:44:28.056Z,7.10
2023-01-25T00:46:55.153Z,9.00
2023-01-25T00:49:33.088Z,8.48
2023-01-25T00:52:00.504Z,8.38
2023-01-25T00:54:27.642Z,8.23
2023-01-25T00:57:03.089Z,9.20
2023-01-25T00:59:30.239Z,9.43
2023-01-25T01:01:57.398Z,9.90
2023-01-25T01:04:31.227Z,10.32
2023-01-25T01:06:58.521Z,10.38
2023-01-25T01:09:32.081Z,10.35
2023-01-25T01:11:59.172Z,8.55
2023-01-25T01:14:33.216Z,11.40
2023-01-25T01:17:07.137Z,8.55
2023-01-25T01:19:47.246Z,12.05
2023-01-25T01:22:14.356Z,10.10
2023-01-25T01:24:42.309Z,11.02
2023-01-25T01:27:16.079Z,9.32
2023-01-25T01:29:43.193Z,7.82
2023-01-25T01:32:17.209Z,8.55
2023-01-25T01:34:44.588Z,8.73
2023-01-25T01:39:45.100Z,8.05
2023-01-25T01:42:12.200Z,8.57
2023-01-25T01:44:53.121Z,8.57
2023-01-25T01:47:26.333Z,10.00
2023-01-25T01:50:06.235Z,7.93
2023-01-25T01:52:36.086Z,8.45
2023-01-25T01:55:04.848Z,7.63
2023-01-25T01:57:42.092Z,8.02
2023-01-25T02:00:10.879Z,3.40
2023-01-25T02:02:45.449Z,7.65
2023-01-25T02:05:18.799Z,9.55
2023-01-25T02:07:54.068Z,6.28
2023-01-25T02:10:22.514Z,8.07
2023-01-25T02:12:56.232Z,10.02
2023-01-25T02:15:23.337Z,9.38
2023-01-25T02:18:04.088Z,9.45
2023-01-25T02:20:46.084Z,8.90
2023-01-25T02:23:19.484Z,10.23
2023-01-25T02:25:53.095Z,9.63
2023-01-25T02:28:24.925Z,9.55
2023-01-25T02:30:59.127Z,9.70
2023-01-25T02:33:27.196Z,10.48
2023-01-25T02:36:04.288Z,12.27
2023-01-25T02:38:33.391Z,9.80
2023-01-25T02:41:13.246Z,12.00
2023-01-25T02:43:40.380Z,11.25
2023-01-25T02:46:21.300Z,11.93
2023-01-25T02:48:48.433Z,15.18
2023-01-25T02:51:15.692Z,12.23
2023-01-25T02:53:49.100Z,13.70
2023-01-25T02:56:16.500Z,13.48
2023-01-25T02:58:50.128Z,17.42
2023-01-25T03:01:17.598Z,15.55
2023-01-25T03:06:18.098Z,13.18
2023-01-25T03:08:45.190Z,13.50
2023-01-25T03:11:19.132Z,15.13
2023-01-25T03:13:46.247Z,12.80
2023-01-25T03:16:13.851Z,18.50
2023-01-25T03:18:48.110Z,15.32
2023-01-25T03:21:19.492Z,14.05
2023-01-25T03:23:53.117Z,13.32
2023-01-25T03:26:21.171Z,12.70
2023-01-25T03:28:55.155Z,14.02
2023-01-25T03:31:22.516Z,13.80
2023-01-25T03:36:23.168Z,10.32
2023-01-25T03:38:50.304Z,13.02
2023-01-25T03:41:24.269Z,13.55
2023-01-25T03:43:51.354Z,14.98
2023-01-25T03:46:18.490Z,14.23
2023-01-25T03:48:52.269Z,15.25
2023-01-25T03:51:19.355Z,13.48
2023-01-25T03:53:46.520Z,12.63
2023-01-25T03:56:26.126Z,13.32
2023-01-25T03:58:53.404Z,12.05
2023-01-25T04:01:27.281Z,11.88
2023-01-25T04:03:54.515Z,13.43
2023-01-25T04:06:21.670Z,12.70
2023-01-25T04:08:55.121Z,11.98
2023-01-25T04:11:22.200Z,10.93
2023-01-25T04:13:56.130Z,10.23
2023-01-25T04:16:23.353Z,9.68
2023-01-25T04:19:04.268Z,8.20
2023-01-25T04:21:31.576Z,10.63
2023-01-25T04:23:58.758Z,8.55
2023-01-25T04:26:32.199Z,8.43
2023-01-25T04:28:59.316Z,5.90
2023-01-25T04:31:33.208Z,8.88
2023-01-25T04:34:00.378Z,8.75
2023-01-25T04:36:27.455Z,9.35
2023-01-25T04:39:01.142Z,7.68
2023-01-25T04:41:29.307Z,10.27
2023-01-25T04:44:03.165Z,11.05
2023-01-25T04:46:30.307Z,9.57
2023-01-25T04:48:57.388Z,9.02
2023-01-25T04:51:31.128Z,9.75
2023-01-25T04:53:58.204Z,11.35
2023-01-25T04:56:32.286Z,14.63
2023-01-25T04:58:59.383Z,12.52
2023-01-25T05:01:26.516Z,19.55
2023-01-25T05:04:00.133Z,14.65
2023-01-25T05:06:27.235Z,29.90
2023-01-25T05:09:01.283Z,18.13
2023-01-25T05:11:35.095Z,15.57
2023-01-25T05:14:09.153Z,20.35
2023-01-25T05:16:43.434Z,14.57
2023-01-25T05:19:23.141Z,15.73
2023-01-25T05:21:59.247Z,14.77
2023-01-25T05:24:34.152Z,13.05
2023-01-25T05:27:03.511Z,11.50
2023-01-25T05:29:38.137Z,10.43
2023-01-25T05:32:06.374Z,9.82
2023-01-25T05:34:40.206Z,9.20
2023-01-25T05:37:08.165Z,8.55
2023-01-25T05:39:35.285Z,8.93
2023-01-25T05:42:09.126Z,10.10
2023-01-25T05:44:36.214Z,7.10
2023-01-25T05:47:10.171Z,8.80
2023-01-25T05:49:37.328Z,10.02
2023-01-25T05:52:04.479Z,9.55
2023-01-25T05:54:38.134Z,8.50
2023-01-25T05:57:05.254Z,9.13
2023-01-25T05:59:39.168Z,9.95
2023-01-25T06:02:06.311Z,9.73
2023-01-25T06:04:33.418Z,9.35
2023-01-25T06:07:07.159Z,7.93
2023-01-25T06:09:34.270Z,9.57
2023-01-25T06:12:08.417Z,10.05
2023-01-25T06:14:35.536Z,10.15
2023-01-25T06:17:02.618Z,10.80
2023-01-25T06:19:36.149Z,9.65
2023-01-25T06:22:03.334Z,8.60
2023-01-25T06:24:37.306Z,10.52
2023-01-25T06:27:04.549Z,10.25
2023-01-25T06:29:31.620Z,11.85
2023-01-25T06:32:05.217Z,10.43
2023-01-25T06:34:32.404Z,11.90
2023-01-25T06:37:06.199Z,9.98
2023-01-25T06:39:33.288Z,11.18
2023-01-25T06:42:00.469Z,11.93
2023-01-25T06:44:34.219Z,10.35
2023-01-25T06:47:01.303Z,9.48
2023-01-25T06:49:35.454Z,11.70
2023-01-25T06:52:02.645Z,10.57
2023-01-25T06:54:29.979Z,12.02
2023-01-25T06:57:03.154Z,10.20
2023-01-25T06:59:30.231Z,8.90
2023-01-25T07:02:04.397Z,11.98
2023-01-25T07:04:31.508Z,11.10
2023-01-25T07:06:58.617Z,9.35
2023-01-25T07:09:32.169Z,10.40
2023-01-25T07:11:59.250Z,7.65
2023-01-25T07:14:33.188Z,9.10
2023-01-25T07:17:02.842Z,7.60
2023-01-25T07:19:44.301Z,8.70
2023-01-25T07:22:11.455Z,7.72
2023-01-25T07:24:38.594Z,7.68
2023-01-25T07:27:12.156Z,8.00
2023-01-25T07:29:41.269Z,6.63
2023-01-25T07:32:15.375Z,8.32
2023-01-25T07:34:42.483Z,9.02
2023-01-25T07:37:10.176Z,8.27
2023-01-25T07:39:44.156Z,9.07
2023-01-25T07:42:11.235Z,10.73
2023-01-25T07:44:45.196Z,7.63
2023-01-25T07:47:12.425Z,10.57
2023-01-25T07:49:39.564Z,10.07
2023-01-25T07:52:13.165Z,8.52
2023-01-25T07:54:40.316Z,9.20
2023-01-25T07:57:14.319Z,6.97
2023-01-25T07:59:41.431Z,8.55
2023-01-25T08:02:11.146Z,7.55
2023-01-25T08:04:45.190Z,7.78
2023-01-25T08:07:12.729Z,8.60
2023-01-25T08:12:14.171Z,8.48
2023-01-25T08:14:42.331Z,9.20
2023-01-25T08:17:16.471Z,7.95
2023-01-25T08:19:50.068Z,8.27
2023-01-25T08:22:24.325Z,8.82
2023-01-25T08:24:51.417Z,9.88
2023-01-25T08:27:18.537Z,10.52
2023-01-25T08:29:52.182Z,10.30
2023-01-25T08:32:19.269Z,8.38
2023-01-25T08:34:53.260Z,8.68
2023-01-25T08:37:20.620Z,8.48
2023-01-25T08:39:55.199Z,7.75
2023-01-25T08:42:22.584Z,8.90
2023-01-25T08:44:56.211Z,10.65
2023-01-25T08:47:23.284Z,11.00
2023-01-25T08:49:51.106Z,8.52
2023-01-25T08:52:25.179Z,10.18
2023-01-25T08:54:52.263Z,8.95
2023-01-25T08:57:26.244Z,10.18
2023-01-25T08:59:53.336Z,11.82
2023-01-25T09:02:21.634Z,12.25
2023-01-25T09:04:55.175Z,12.13
2023-01-25T09:07:22.310Z,12.18
2023-01-25T09:09:56.312Z,12.50
2023-01-25T09:12:23.403Z,13.60
2023-01-25T09:14:50.544Z,13.18
2023-01-25T09:17:24.182Z,12.00
2023-01-25T09:19:58.455Z,12.82
2023-01-25T09:22:32.326Z,13.13
2023-01-25T09:24:59.419Z,12.80
2023-01-25T09:27:26.522Z,12.02
2023-01-25T09:30:02.351Z,14.63
2023-01-25T09:32:33.429Z,12.25
2023-01-25T09:35:07.230Z,12.10
2023-01-25T09:37:34.428Z,12.75
2023-01-25T09:40:01.691Z,14.18
2023-01-25T09:42:47.202Z,11.93
2023-01-25T09:45:33.102Z,10.05
2023-01-25T09:48:16.195Z,11.85
2023-01-25T09:51:01.768Z,10.50
2023-01-25T09:53:39.253Z,10.45
2023-01-25T09:56:15.279Z,10.98
2023-01-25T09:58:54.249Z,11.70
2023-01-25T10:01:40.876Z,12.10
2023-01-25T10:04:20.232Z,12.05
2023-01-25T10:06:59.884Z,12.93
2023-01-25T10:09:49.268Z,14.10
2023-01-25T10:12:23.933Z,14.40
2023-01-25T10:14:58.260Z,15.02
2023-01-25T10:17:28.718Z,15.05
2023-01-25T10:20:18.288Z,14.07
2023-01-25T10:22:53.153Z,16.08
2023-01-25T10:25:31.226Z,15.18
2023-01-25T10:30:40.000Z,14.02
2023-01-25T10:33:22.220Z,14.77
2023-01-25T10:35:50.382Z,15.57
2023-01-25T10:38:36.341Z,14.55
2023-01-25T10:41:10.747Z,14.10
2023-01-25T10:43:44.402Z,14.73
2023-01-25T10:46:24.167Z,14.80
2023-01-25T10:48:58.346Z,15.38
2023-01-25T10:51:32.581Z,14.05
2023-01-25T10:54:07.246Z,15.38
2023-01-25T10:56:42.233Z,16.95
2023-01-25T10:59:23.230Z,15.80
2023-01-25T11:01:50.366Z,18.20
2023-01-25T11:04:32.268Z,17.95
2023-01-25T11:07:00.255Z,16.90
2023-01-25T11:09:32.484Z,17.45
2023-01-25T11:12:09.219Z,16.10
2023-01-25T11:14:43.360Z,16.73
2023-01-25T11:17:24.818Z,16.30
2023-01-25T11:20:20.263Z,16.15
2023-01-25T11:22:57.513Z,17.55
2023-01-25T11:25:31.375Z,15.13
2023-01-25T11:28:11.475Z,14.48
2023-01-25T11:30:45.508Z,15.80
2023-01-25T11:33:13.720Z,12.82
2023-01-25T11:35:53.359Z,12.68
2023-01-25T11:38:22.609Z,12.63
2023-01-25T11:40:52.853Z,13.68
2023-01-25T11:43:32.233Z,12.95
2023-01-25T11:46:16.514Z,11.50
2023-01-25T11:48:52.322Z,11.32
2023-01-25T11:51:19.397Z,11.80
2023-01-25T11:53:59.212Z,10.15
2023-01-25T11:56:38.354Z,10.13
2023-01-25T11:59:31.229Z,10.02
2023-01-25T12:01:58.369Z,8.38
2023-01-25T12:04:38.282Z,7.72
2023-01-25T12:07:29.113Z,9.35
2023-01-25T12:10:22.272Z,7.13
2023-01-25T12:12:56.896Z,8.85
2023-01-25T12:15:36.275Z,8.13
2023-01-25T12:18:10.275Z,9.15
2023-01-25T12:21:03.262Z,8.75
2023-01-25T12:23:37.416Z,6.70
2023-01-25T12:26:20.369Z,7.75
2023-01-25T12:29:03.659Z,7.18
2023-01-25T12:31:47.292Z,7.40
2023-01-25T12:34:29.253Z,6.95
2023-01-25T12:37:04.236Z,7.80
2023-01-25T12:39:42.301Z,7.05
2023-01-25T12:42:30.229Z,6.88
2023-01-25T12:45:11.614Z,6.30
2023-01-25T12:47:41.367Z,6.25
2023-01-25T12:50:33.269Z,7.25
2023-01-25T12:53:26.671Z,7.03
2023-01-25T12:56:01.275Z,7.32
2023-01-25T12:58:38.021Z,7.22
2023-01-25T13:01:31.247Z,8.02
2023-01-25T13:04:10.910Z,7.75
2023-01-25T13:06:50.399Z,8.40
2023-01-25T13:09:23.573Z,8.40
2023-01-25T13:11:57.253Z,9.18
2023-01-25T13:14:27.090Z,8.88
2023-01-25T13:17:09.771Z,10.07
2023-01-25T13:19:43.411Z,11.30
2023-01-25T13:22:43.246Z,12.52
2023-01-25T13:25:16.520Z,13.18
2023-01-25T13:27:50.263Z,13.52
2023-01-25T13:30:17.379Z,14.75
2023-01-25T13:32:57.302Z,12.45
2023-01-25T13:35:27.159Z,13.57
2023-01-25T13:38:05.608Z,14.95
2023-01-25T13:40:35.615Z,14.95
2023-01-25T13:43:04.492Z,15.70
2023-01-25T13:45:40.263Z,16.08
2023-01-25T13:48:17.156Z,16.80
2023-01-25T13:50:53.298Z,16.60
2023-01-25T13:53:22.284Z,15.93
2023-01-25T13:55:57.406Z,18.17
2023-01-25T13:58:28.803Z,18.75
2023-01-25T14:01:06.530Z,19.25
2023-01-25T14:03:41.412Z,20.25
2023-01-25T14:06:22.437Z,19.70
2023-01-25T14:08:50.163Z,23.00
2023-01-25T14:14:02.261Z,18.85
2023-01-25T14:16:30.691Z,19.27
2023-01-25T14:19:23.426Z,19.42
2023-01-25T14:21:57.334Z,20.63
2023-01-25T14:24:31.226Z,19.98
2023-01-25T14:26:58.304Z,20.88
2023-01-25T14:29:33.408Z,20.08
2023-01-25T14:32:00.703Z,20.48
2023-01-25T14:34:34.261Z,20.75
2023-01-25T14:37:20.975Z,19.63
2023-01-25T14:39:56.260Z,19.90
2023-01-25T14:42:23.362Z,19.67
2023-01-25T14:44:57.253Z,19.85
2023-01-25T14:47:33.708Z,21.23
2023-01-25T14:50:26.237Z,22.67
2023-01-25T14:52:53.412Z,22.20
2023-01-25T14:55:27.270Z,19.17
2023-01-25T14:57:59.282Z,24.70
2023-01-25T15:00:41.269Z,22.30
2023-01-25T15:03:15.955Z,22.20
2023-01-25T15:05:52.263Z,22.67
2023-01-25T15:08:37.104Z,24.17
2023-01-25T15:11:29.265Z,21.40
2023-01-25T15:14:03.343Z,24.08
2023-01-25T15:16:40.339Z,23.13
2023-01-25T15:19:21.811Z,20.55
2023-01-25T15:21:55.269Z,24.02
2023-01-25T15:24:23.541Z,20.52
2023-01-25T15:26:59.317Z,20.42
2023-01-25T15:29:27.144Z,20.02
2023-01-25T15:31:55.650Z,21.95
2023-01-25T15:34:32.272Z,19.08
2023-01-25T15:36:59.346Z,20.45
2023-01-25T15:39:34.316Z,21.75
2023-01-25T15:42:01.461Z,18.38
2023-01-25T15:44:28.653Z,21.15
2023-01-25T15:47:02.297Z,17.60
2023-01-25T15:49:32.302Z,18.95
2023-01-25T15:52:12.396Z,18.58
2023-01-25T15:54:40.830Z,18.58
2023-01-25T15:57:43.519Z,17.50
2023-01-25T16:00:21.451Z,19.20
2023-01-25T16:02:55.279Z,18.23
2023-01-25T16:05:29.418Z,19.30
2023-01-25T16:07:56.543Z,17.77
2023-01-25T16:10:24.680Z,16.83
2023-01-25T16:12:58.291Z,17.88
2023-01-25T16:15:25.420Z,17.40
2023-01-25T16:17:59.284Z,17.58
2023-01-25T16:20:33.196Z,17.17
2023-01-25T16:23:07.437Z,19.23
2023-01-25T16:25:34.717Z,17.58
2023-01-25T16:28:01.848Z,18.23
2023-01-25T16:30:37.414Z,17.42
2023-01-25T16:33:04.533Z,15.93
2023-01-25T16:35:38.320Z,17.65
2023-01-25T16:38:05.385Z,18.75
2023-01-25T16:40:36.669Z,15.73
2023-01-25T16:43:10.295Z,16.80
2023-01-25T16:45:37.413Z,19.23
2023-01-25T16:48:11.356Z,18.23
2023-01-25T16:50:38.463Z,16.50
2023-01-25T16:53:05.530Z,17.20
2023-01-25T16:55:39.289Z,31.77
2023-01-25T16:58:06.409Z,45.08
2023-01-25T17:00:40.316Z,17.15
2023-01-25T17:03:07.448Z,17.73
2023-01-25T17:05:38.406Z,17.25
2023-01-25T17:08:12.298Z,22.42
2023-01-25T17:10:39.384Z,20.13
2023-01-25T17:13:13.278Z,18.98
2023-01-25T17:15:40.357Z,25.55
2023-01-25T17:18:14.319Z,19.67
2023-01-25T17:20:48.355Z,19.02
2023-01-25T17:23:22.284Z,17.10
2023-01-25T17:25:56.281Z,20.10
2023-01-25T17:28:23.795Z,18.63
2023-01-25T17:33:25.760Z,23.08
2023-01-25T17:35:58.342Z,16.52
2023-01-25T17:38:32.294Z,17.42
2023-01-25T17:41:03.820Z,12.95
2023-01-25T17:43:37.331Z,16.05
2023-01-25T17:46:26.008Z,13.10
2023-01-25T17:49:00.335Z,13.90
2023-01-25T17:51:27.397Z,12.90
2023-01-25T17:53:54.592Z,13.02
2023-01-25T17:56:28.710Z,11.23
2023-01-25T17:58:55.856Z,13.05
2023-01-25T18:01:26.828Z,12.90
2023-01-25T18:04:01.306Z,13.15
2023-01-25T18:06:30.310Z,12.57
2023-01-25T18:09:09.316Z,14.35
2023-01-25T18:11:37.346Z,14.52
2023-01-25T18:14:16.431Z,13.93
2023-01-25T18:16:44.743Z,13.20
2023-01-25T18:19:31.359Z,37.75
2023-01-25T18:21:58.448Z,19.90
2023-01-25T18:24:27.321Z,20.20
2023-01-25T18:27:08.305Z,14.02
2023-01-25T18:29:40.511Z,15.73
2023-01-25T18:32:14.327Z,14.38
2023-01-25T18:34:41.466Z,13.05
2023-01-25T18:37:24.451Z,14.18
2023-01-25T18:39:53.032Z,15.55
2023-01-25T18:42:21.611Z,25.23
2023-01-25T18:44:55.311Z,41.60
2023-01-25T18:47:23.203Z,24.17
2023-01-25T18:49:57.377Z,17.45
2023-01-25T18:52:24.588Z,13.30
2023-01-25T18:54:51.917Z,16.00
2023-01-25T18:57:25.303Z,16.88
2023-01-25T18:59:52.373Z,13.95
2023-01-25T19:02:26.533Z,16.70
2023-01-25T19:04:53.773Z,16.00
2023-01-25T19:07:20.841Z,18.98
2023-01-25T19:09:54.296Z,17.42
2023-01-25T19:12:21.450Z,19.13
2023-01-25T19:14:55.367Z,20.20
2023-01-25T19:17:22.469Z,21.45
2023-01-25T19:20:09.373Z,23.67
2023-01-25T19:22:36.421Z,74.30
2023-01-25T19:25:03.561Z,26.98
2023-01-25T19:27:37.323Z,24.77
2023-01-25T19:30:04.568Z,40.08
2023-01-25T19:32:38.347Z,28.50
2023-01-25T19:35:07.692Z,24.02
2023-01-25T19:37:41.319Z,20.90
2023-01-25T19:40:09.091Z,24.00
2023-01-25T19:42:43.305Z,17.02
2023-01-25T19:45:10.949Z,16.23
2023-01-25T19:47:44.312Z,17.50
2023-01-25T19:50:12.398Z,28.35
2023-01-25T19:52:46.325Z,19.15
2023-01-25T19:55:13.389Z,12.98
2023-01-25T19:57:47.339Z,12.57
2023-01-25T20:00:14.751Z,13.55
2023-01-25T20:02:48.601Z,13.05
2023-01-25T20:05:15.914Z,10.68
2023-01-25T20:07:43.095Z,11.40
2023-01-25T20:10:17.341Z,11.27
2023-01-25T20:12:44.409Z,11.75
2023-01-25T20:15:18.391Z,11.18
2023-01-25T20:17:45.603Z,13.32
2023-01-25T20:20:25.319Z,12.15
2023-01-25T20:23:00.486Z,9.43
2023-01-25T20:25:27.594Z,11.68
2023-01-25T20:27:54.694Z,14.30
2023-01-25T20:30:28.411Z,15.77
2023-01-25T20:33:09.591Z,16.50
2023-01-25T20:35:49.497Z,20.02
2023-01-25T20:38:16.701Z,22.55
2023-01-25T20:40:43.785Z,23.73
2023-01-25T20:43:17.360Z,22.40
2023-01-25T20:45:52.303Z,25.95
2023-01-25T20:48:26.325Z,22.52
2023-01-25T20:50:53.406Z,33.40
2023-01-25T20:53:27.643Z,32.95
2023-01-25T20:55:55.447Z,30.13
2023-01-25T20:58:22.498Z,33.53
2023-01-25T21:00:56.401Z,35.55
2023-01-25T21:03:24.034Z,55.22
2023-01-25T21:06:01.359Z,51.53
2023-01-25T21:08:28.735Z,44.17
2023-01-25T21:11:04.379Z,53.80
2023-01-25T21:13:31.487Z,59.80
2023-01-25T21:16:19.450Z,46.33
2023-01-25T21:18:47.270Z,48.73
2023-01-25T21:21:29.663Z,46.00
2023-01-25T21:24:05.303Z,50.42
2023-01-25T21:26:40.499Z,50.92
2023-01-25T21:29:08.009Z,44.72
2023-01-25T21:34:09.504Z,28.80
2023-01-25T21:36:36.741Z,32.53
2023-01-25T21:39:03.843Z,28.00
2023-01-25T21:41:39.522Z,24.13
2023-01-25T21:44:25.660Z,26.65
2023-01-25T21:50:11.581Z,22.08
2023-01-25T21:52:45.511Z,20.48
2023-01-25T21:55:12.647Z,24.88
2023-01-25T21:57:53.400Z,24.45
2023-01-25T22:00:20.692Z,22.38
2023-01-25T22:02:51.727Z,22.80
2023-01-25T22:05:25.359Z,24.92
2023-01-25T22:07:52.408Z,23.70
2023-01-25T22:10:26.488Z,25.73
2023-01-25T22:12:53.560Z,25.73
2023-01-25T22:15:20.633Z,23.48
2023-01-25T22:17:54.528Z,26.27
2023-01-25T22:20:28.650Z,26.17
2023-01-25T22:23:09.489Z,24.60
2023-01-25T22:25:36.553Z,24.73
2023-01-25T22:28:07.332Z,22.75
2023-01-25T22:30:41.437Z,24.10
2023-01-25T22:33:08.556Z,23.45
2023-01-25T22:35:42.355Z,24.50
2023-01-25T22:38:09.446Z,25.48
2023-01-25T22:40:43.412Z,25.25
2023-01-25T22:43:10.482Z,22.33
2023-01-25T22:45:37.630Z,21.73
2023-01-25T22:48:11.502Z,21.88
2023-01-25T22:50:38.600Z,20.65
2023-01-25T22:53:05.649Z,22.45
2023-01-25T22:55:39.371Z,22.27
2023-01-25T22:58:06.522Z,24.15
2023-01-25T23:00:40.381Z,23.05
2023-01-25T23:03:07.448Z,23.52
2023-01-25T23:05:41.519Z,18.27
2023-01-25T23:08:08.584Z,21.58
2023-01-25T23:10:35.662Z,20.95
2023-01-25T23:13:09.386Z,20.73
2023-01-25T23:15:36.447Z,19.63
2023-01-25T23:18:28.620Z,21.42
2023-01-25T23:21:02.441Z,18.35
2023-01-25T23:23:36.519Z,19.58
2023-01-25T23:26:03.591Z,21.00
2023-01-25T23:28:31.330Z,20.40
2023-01-25T23:31:23.441Z,15.63
2023-01-25T23:33:50.585Z,17.45
2023-01-25T23:36:28.491Z,16.48
2023-01-25T23:39:02.407Z,13.43
2023-01-25T23:41:30.009Z,11.93
2023-01-25T23:46:31.482Z,12.25
2023-01-25T23:48:58.662Z,11.95
2023-01-25T23:51:32.440Z,11.90
2023-01-25T23:53:59.532Z,10.98
2023-01-25T23:56:26.685Z,10.30
2023-01-25T23:59:00.413Z,9.65
